createdAt,value
2023-04-17T00:01:05.903Z,99.90
2023-04-17T00:03:33.667Z,99.90
2023-04-17T00:06:01.023Z,99.90
2023-04-17T00:08:28.290Z,99.90
2023-04-17T00:11:04.586Z,99.90
2023-04-17T00:13:34.796Z,99.90
2023-04-17T00:16:02.129Z,99.90
2023-04-17T00:18:29.418Z,99.90
2023-04-17T00:20:57.075Z,99.90
2023-04-17T00:23:25.940Z,99.90
2023-04-17T00:25:53.098Z,99.90
2023-04-17T00:28:20.662Z,99.90
2023-04-17T00:30:47.902Z,99.90
2023-04-17T00:33:15.696Z,99.90
2023-04-17T00:35:42.918Z,99.90
2023-04-17T00:38:10.085Z,99.90
2023-04-17T00:40:37.244Z,99.90
2023-04-17T00:43:06.668Z,99.90
2023-04-17T00:45:35.125Z,99.90
2023-04-17T00:48:05.297Z,99.90
2023-04-17T00:50:33.430Z,99.90
2023-04-17T00:53:01.507Z,99.90
2023-04-17T00:55:30.969Z,99.90
2023-04-17T00:57:58.946Z,99.90
2023-04-17T01:00:26.299Z,99.90
2023-04-17T01:02:55.570Z,99.90
2023-04-17T01:05:23.052Z,99.90
2023-04-17T01:07:50.546Z,99.90
2023-04-17T01:10:18.131Z,99.90
2023-04-17T01:12:49.024Z,99.90
2023-04-17T01:15:16.453Z,99.90
2023-04-17T01:17:43.758Z,99.90
2023-04-17T01:20:12.024Z,99.90
2023-04-17T01:22:39.181Z,99.90
2023-04-17T01:25:06.673Z,99.90
2023-04-17T01:27:36.675Z,99.90
2023-04-17T01:30:04.348Z,99.90
2023-04-17T01:32:36.464Z,99.90
2023-04-17T01:35:04.166Z,99.90
2023-04-17T01:37:31.526Z,99.90
2023-04-17T01:39:59.454Z,99.90
2023-04-17T01:42:27.346Z,99.90
2023-04-17T01:44:54.705Z,99.90
2023-04-17T01:47:21.914Z,99.90
2023-04-17T01:49:49.094Z,99.90
2023-04-17T01:52:16.209Z,99.90
2023-04-17T01:54:43.453Z,99.90
2023-04-17T01:57:10.913Z,99.90
2023-04-17T01:59:38.143Z,99.90
2023-04-17T02:02:05.425Z,99.90
2023-04-17T02:04:32.870Z,99.90
2023-04-17T02:07:00.117Z,99.90
2023-04-17T02:09:27.297Z,99.90
2023-04-17T02:11:54.535Z,99.90
2023-04-17T02:14:21.659Z,99.90
2023-04-17T02:16:50.140Z,99.90
2023-04-17T02:19:17.417Z,99.90
2023-04-17T02:21:44.604Z,99.90
2023-04-17T02:24:11.754Z,99.90
2023-04-17T02:26:40.461Z,99.90
2023-04-17T02:29:07.773Z,99.90
2023-04-17T02:31:35.141Z,99.90
2023-04-17T02:34:02.557Z,99.90
2023-04-17T02:36:30.720Z,99.90
2023-04-17T02:38:57.992Z,99.90
2023-04-17T02:41:27.905Z,99.90
2023-04-17T02:43:56.779Z,99.90
2023-04-17T02:46:24.130Z,99.90
2023-04-17T02:48:51.403Z,99.90
2023-04-17T02:51:21.739Z,99.90
2023-04-17T02:53:49.519Z,99.90
2023-04-17T02:56:17.676Z,99.90
2023-04-17T02:58:45.572Z,99.90
2023-04-17T03:01:12.973Z,99.90
2023-04-17T03:03:45.202Z,99.90
2023-04-17T03:06:14.822Z,99.90
2023-04-17T03:08:42.212Z,99.90
2023-04-17T03:11:09.815Z,99.90
2023-04-17T03:13:37.186Z,99.90
2023-04-17T03:16:05.719Z,99.90
2023-04-17T03:18:39.676Z,99.90
2023-04-17T03:21:07.728Z,99.90
2023-04-17T03:23:34.979Z,99.90
2023-04-17T03:26:02.258Z,99.90
2023-04-17T03:28:32.476Z,99.90
2023-04-17T03:30:59.970Z,99.90
2023-04-17T03:33:27.355Z,99.90
2023-04-17T03:35:57.448Z,99.90
2023-04-17T03:38:24.617Z,99.90
2023-04-17T03:40:52.837Z,99.90
2023-04-17T03:43:23.102Z,99.90
2023-04-17T03:45:50.419Z,99.90
2023-04-17T03:48:18.304Z,99.90
2023-04-17T03:50:48.243Z,99.90
2023-04-17T03:53:15.954Z,99.90
2023-04-17T03:55:43.136Z,99.90
2023-04-17T03:58:19.158Z,99.90
2023-04-17T04:00:46.732Z,99.90
2023-04-17T04:03:14.428Z,99.90
2023-04-17T04:05:42.771Z,99.90
2023-04-17T04:08:11.529Z,99.90
2023-04-17T04:10:46.955Z,99.90
2023-04-17T04:13:19.847Z,99.90
2023-04-17T04:15:53.883Z,99.90
2023-04-17T04:18:24.670Z,99.90
2023-04-17T04:20:51.992Z,99.90
2023-04-17T04:23:28.092Z,99.90
2023-04-17T04:26:01.673Z,99.90
2023-04-17T04:28:40.616Z,99.90
2023-04-17T04:31:18.615Z,99.90
2023-04-17T04:33:46.992Z,99.90
2023-04-17T04:36:20.556Z,99.90
2023-04-17T04:38:53.302Z,99.90
2023-04-17T04:41:29.898Z,99.90
2023-04-17T04:43:58.245Z,99.90
2023-04-17T04:46:25.646Z,99.90
2023-04-17T04:48:52.849Z,99.90
2023-04-17T04:51:20.128Z,99.90
2023-04-17T04:53:49.957Z,99.90
2023-04-17T04:56:19.335Z,99.90
2023-04-17T04:58:49.137Z,99.90
2023-04-17T05:01:17.663Z,99.90
2023-04-17T05:03:46.732Z,99.90
2023-04-17T05:06:21.224Z,99.90
2023-04-17T05:08:53.595Z,99.90
2023-04-17T05:11:21.261Z,99.90
2023-04-17T05:13:48.915Z,99.90
2023-04-17T05:16:21.763Z,99.90
2023-04-17T05:18:49.110Z,99.90
2023-04-17T05:21:22.067Z,99.90
2023-04-17T05:23:51.762Z,99.90
2023-04-17T05:26:22.113Z,99.90
2023-04-17T05:28:50.038Z,99.90
2023-04-17T05:31:22.781Z,99.90
2023-04-17T05:33:51.150Z,99.90
2023-04-17T05:36:18.409Z,99.90
2023-04-17T05:38:46.564Z,99.90
2023-04-17T05:41:14.130Z,99.90
2023-04-17T05:43:42.798Z,99.90
2023-04-17T05:46:10.394Z,99.90
2023-04-17T05:48:37.935Z,99.90
2023-04-17T05:51:05.489Z,99.90
2023-04-17T05:53:33.490Z,99.90
2023-04-17T05:56:01.805Z,99.90
2023-04-17T05:58:30.390Z,99.90
2023-04-17T06:00:58.985Z,99.90
2023-04-17T06:03:28.304Z,99.90
2023-04-17T06:06:10.214Z,99.90
2023-04-17T06:08:37.534Z,99.90
2023-04-17T06:11:05.678Z,99.90
2023-04-17T06:13:33.646Z,99.90
2023-04-17T06:16:01.229Z,99.90
2023-04-17T06:18:28.618Z,99.90
2023-04-17T06:20:56.135Z,99.90
2023-04-17T06:23:23.464Z,99.90
2023-04-17T06:25:50.878Z,99.90
2023-04-17T06:28:19.371Z,99.90
2023-04-17T06:30:51.152Z,99.90
2023-04-17T06:33:19.201Z,99.90
2023-04-17T06:35:46.634Z,99.90
2023-04-17T06:38:22.575Z,99.90
2023-04-17T06:40:51.432Z,99.90
2023-04-17T06:43:20.162Z,99.90
2023-04-17T06:45:48.260Z,99.90
2023-04-17T06:48:15.590Z,99.90
2023-04-17T06:50:42.755Z,99.90
2023-04-17T06:53:10.198Z,99.90
2023-04-17T06:55:37.533Z,99.90
2023-04-17T06:58:05.050Z,99.90
2023-04-17T07:00:32.455Z,99.90
2023-04-17T07:02:59.856Z,99.90
2023-04-17T07:05:27.266Z,99.90
2023-04-17T07:07:55.493Z,99.90
2023-04-17T07:10:22.966Z,99.90
2023-04-17T07:12:50.561Z,99.90
2023-04-17T07:15:18.017Z,99.90
2023-04-17T07:17:45.579Z,99.90
2023-04-17T07:20:13.022Z,99.90
2023-04-17T07:22:40.219Z,99.90
2023-04-17T07:25:07.987Z,99.90
2023-04-17T07:27:36.454Z,99.90
2023-04-17T07:30:04.413Z,99.40
2023-04-17T07:32:46.431Z,99.40
2023-04-17T07:35:32.144Z,98.10
2023-04-17T07:38:01.534Z,97.50
2023-04-17T07:40:29.095Z,96.80
2023-04-17T07:42:57.055Z,95.90
2023-04-17T07:45:24.350Z,95.60
2023-04-17T07:47:52.685Z,94.50
2023-04-17T07:50:20.426Z,93.50
2023-04-17T07:52:47.613Z,93.50
2023-04-17T07:55:15.507Z,92.00
2023-04-17T07:57:43.476Z,92.40
2023-04-17T08:00:13.938Z,91.40
2023-04-17T08:02:45.022Z,91.50
2023-04-17T08:05:12.626Z,91.40
2023-04-17T08:07:41.145Z,91.00
2023-04-17T08:10:08.782Z,91.00
2023-04-17T08:12:36.367Z,90.70
2023-04-17T08:15:04.448Z,90.50
2023-04-17T08:17:32.177Z,90.00
2023-04-17T08:20:00.692Z,88.10
2023-04-17T08:22:29.125Z,86.40
2023-04-17T08:24:59.676Z,87.80
2023-04-17T08:27:26.950Z,88.40
2023-04-17T08:29:54.690Z,87.60
2023-04-17T08:32:21.953Z,88.00
2023-04-17T08:34:49.251Z,86.60
2023-04-17T08:37:16.486Z,83.90
2023-04-17T08:39:43.852Z,82.70
2023-04-17T08:42:15.339Z,82.60
2023-04-17T08:44:45.762Z,84.00
2023-04-17T08:47:13.687Z,78.60
2023-04-17T08:49:43.827Z,77.50
2023-04-17T08:52:12.068Z,78.30
2023-04-17T08:54:39.644Z,77.80
2023-04-17T08:57:06.917Z,76.50
2023-04-17T08:59:34.218Z,77.10
2023-04-17T09:02:07.713Z,77.70
2023-04-17T09:04:42.625Z,78.10
2023-04-17T09:07:12.324Z,76.70
2023-04-17T09:09:56.936Z,77.70
2023-04-17T09:12:26.105Z,79.00
2023-04-17T09:14:53.546Z,81.70
2023-04-17T09:17:21.644Z,81.30
2023-04-17T09:20:11.942Z,80.20
2023-04-17T09:22:40.948Z,75.00
2023-04-17T09:25:28.173Z,76.30
2023-04-17T09:28:13.905Z,76.30
2023-04-17T09:30:42.593Z,76.00
2023-04-17T09:33:11.759Z,76.70
2023-04-17T09:35:40.167Z,76.90
2023-04-17T09:38:07.832Z,76.90
2023-04-17T09:40:42.895Z,77.20
2023-04-17T09:43:10.921Z,77.50
2023-04-17T09:45:41.814Z,76.10
2023-04-17T09:48:12.475Z,76.80
2023-04-17T09:50:40.489Z,77.40
2023-04-17T09:53:09.097Z,76.90
2023-04-17T09:55:37.694Z,77.70
2023-04-17T09:58:07.554Z,76.60
2023-04-17T10:00:37.713Z,75.40
2023-04-17T10:03:05.398Z,76.20
2023-04-17T10:05:32.884Z,76.10
2023-04-17T10:08:00.658Z,77.80
2023-04-17T10:10:32.504Z,77.50
2023-04-17T10:13:02.681Z,75.90
2023-04-17T10:15:30.747Z,76.10
2023-04-17T10:18:25.350Z,74.60
2023-04-17T10:20:53.876Z,75.90
2023-04-17T10:23:35.041Z,76.70
2023-04-17T10:26:29.937Z,74.90
2023-04-17T10:28:57.930Z,74.60
2023-04-17T10:32:10.530Z,75.80
2023-04-17T10:34:39.557Z,76.10
2023-04-17T10:37:07.926Z,75.50
2023-04-17T10:39:55.394Z,77.50
2023-04-17T10:42:24.528Z,78.90
2023-04-17T10:44:58.647Z,79.40
2023-04-17T10:47:35.679Z,76.50
2023-04-17T10:50:08.650Z,73.30
2023-04-17T10:52:42.091Z,75.90
2023-04-17T10:55:21.914Z,79.70
2023-04-17T10:58:04.616Z,81.50
2023-04-17T11:00:36.772Z,84.20
2023-04-17T11:03:06.994Z,85.00
2023-04-17T11:05:35.844Z,85.20
2023-04-17T11:08:03.278Z,82.00
2023-04-17T11:10:31.028Z,81.40
2023-04-17T11:12:58.308Z,81.50
2023-04-17T11:15:28.250Z,83.50
2023-04-17T11:17:56.813Z,83.90
2023-04-17T11:20:26.323Z,84.60
2023-04-17T11:22:53.599Z,83.30
2023-04-17T11:25:25.714Z,82.80
2023-04-17T11:27:58.060Z,82.00
2023-04-17T11:30:37.567Z,83.60
2023-04-17T11:33:07.791Z,85.30
2023-04-17T11:35:40.900Z,82.20
2023-04-17T11:38:29.050Z,79.20
2023-04-17T11:40:59.714Z,78.40
2023-04-17T11:43:29.496Z,79.10
2023-04-17T11:45:59.154Z,78.30
2023-04-17T11:48:30.362Z,75.70
2023-04-17T11:51:04.381Z,74.30
2023-04-17T11:53:34.756Z,72.60
2023-04-17T11:56:20.156Z,73.10
2023-04-17T11:58:52.023Z,70.70
2023-04-17T12:01:24.935Z,70.50
2023-04-17T12:03:54.629Z,72.30
2023-04-17T12:06:22.428Z,73.80
2023-04-17T12:08:51.205Z,74.20
2023-04-17T12:11:34.234Z,75.50
2023-04-17T12:14:03.291Z,75.30
2023-04-17T12:16:30.643Z,76.50
2023-04-17T12:18:58.774Z,77.00
2023-04-17T12:21:25.946Z,78.10
2023-04-17T12:23:53.255Z,75.10
2023-04-17T12:26:20.548Z,75.00
2023-04-17T12:28:47.889Z,73.20
2023-04-17T12:31:15.117Z,73.00
2023-04-17T12:33:42.415Z,74.60
2023-04-17T12:36:10.028Z,73.40
2023-04-17T12:38:37.356Z,72.20
2023-04-17T12:41:04.581Z,72.00
2023-04-17T12:43:33.450Z,73.40
2023-04-17T12:46:01.504Z,75.60
2023-04-17T12:48:30.802Z,76.30
2023-04-17T12:50:59.605Z,77.20
2023-04-17T12:53:26.941Z,79.60
2023-04-17T12:55:54.372Z,82.50
2023-04-17T12:58:21.647Z,83.90
2023-04-17T13:00:48.901Z,82.50
2023-04-17T13:03:16.269Z,80.50
2023-04-17T13:05:44.443Z,75.10
2023-04-17T13:08:15.047Z,70.40
2023-04-17T13:10:42.708Z,68.00
2023-04-17T13:13:10.330Z,64.00
2023-04-17T13:15:37.630Z,63.70
2023-04-17T13:18:05.439Z,65.10
2023-04-17T13:20:32.726Z,66.80
2023-04-17T13:23:00.033Z,70.00
2023-04-17T13:25:27.224Z,74.60
2023-04-17T13:27:55.584Z,77.60
2023-04-17T13:30:23.130Z,78.70
2023-04-17T13:32:50.522Z,76.50
2023-04-17T13:35:18.109Z,74.60
2023-04-17T13:37:45.718Z,72.40
2023-04-17T13:40:14.753Z,72.10
2023-04-17T13:42:43.141Z,72.00
2023-04-17T13:45:13.724Z,71.40
2023-04-17T13:47:41.410Z,71.10
2023-04-17T13:50:10.423Z,69.60
2023-04-17T13:52:38.616Z,70.10
2023-04-17T13:55:11.939Z,73.30
2023-04-17T13:57:52.674Z,74.30
2023-04-17T14:00:22.296Z,71.90
2023-04-17T14:02:49.587Z,72.60
2023-04-17T14:05:17.718Z,74.80
2023-04-17T14:07:45.934Z,74.40
2023-04-17T14:10:14.426Z,75.70
2023-04-17T14:12:42.110Z,76.30
2023-04-17T14:15:10.438Z,77.60
2023-04-17T14:17:42.944Z,79.10
2023-04-17T14:20:12.329Z,79.60
2023-04-17T14:22:40.409Z,78.80
2023-04-17T14:25:08.613Z,76.00
2023-04-17T14:27:36.683Z,75.40
2023-04-17T14:30:08.186Z,76.30
2023-04-17T14:32:38.523Z,78.30
2023-04-17T14:35:07.401Z,79.40
2023-04-17T14:37:35.939Z,80.50
2023-04-17T14:40:04.875Z,81.00
2023-04-17T14:42:38.095Z,80.90
2023-04-17T14:45:14.805Z,79.90
2023-04-17T14:47:45.043Z,81.40
2023-04-17T14:50:15.462Z,81.00
2023-04-17T14:52:42.697Z,80.00
2023-04-17T14:55:10.976Z,73.70
2023-04-17T14:57:42.278Z,71.90
2023-04-17T15:00:10.501Z,73.10
2023-04-17T15:02:39.419Z,73.70
2023-04-17T15:05:07.831Z,70.60
2023-04-17T15:07:35.758Z,66.90
2023-04-17T15:10:03.151Z,68.30
2023-04-17T15:12:30.485Z,71.60
2023-04-17T15:14:57.751Z,72.10
2023-04-17T15:17:25.214Z,71.70
2023-04-17T15:19:52.895Z,73.40
2023-04-17T15:22:20.067Z,74.50
2023-04-17T15:24:47.283Z,74.10
2023-04-17T15:27:14.668Z,72.80
2023-04-17T15:29:41.984Z,73.00
2023-04-17T15:32:09.215Z,74.30
2023-04-17T15:34:36.520Z,75.40
2023-04-17T15:37:07.085Z,76.50
2023-04-17T15:39:39.720Z,77.30
2023-04-17T15:42:09.376Z,76.80
2023-04-17T15:44:37.703Z,79.50
2023-04-17T15:47:05.838Z,81.00
2023-04-17T15:49:33.094Z,81.80
2023-04-17T15:52:00.271Z,82.50
2023-04-17T15:54:27.935Z,84.60
2023-04-17T15:56:56.737Z,86.30
2023-04-17T15:59:24.551Z,87.80
2023-04-17T16:01:53.310Z,88.70
2023-04-17T16:04:20.939Z,90.40
2023-04-17T16:06:48.247Z,91.80
2023-04-17T16:09:19.481Z,92.40
2023-04-17T16:11:48.475Z,92.60
2023-04-17T16:14:15.637Z,93.20
2023-04-17T16:16:43.038Z,93.60
2023-04-17T16:19:10.614Z,94.20
2023-04-17T16:21:38.596Z,94.10
2023-04-17T16:24:05.900Z,94.50
2023-04-17T16:26:33.104Z,94.70
2023-04-17T16:29:00.385Z,95.20
2023-04-17T16:31:28.208Z,95.50
2023-04-17T16:33:55.972Z,95.70
2023-04-17T16:36:23.160Z,95.70
2023-04-17T16:38:50.337Z,96.50
2023-04-17T16:41:18.630Z,97.20
2023-04-17T16:43:46.184Z,97.50
2023-04-17T16:46:23.843Z,98.20
2023-04-17T16:48:58.888Z,98.80
2023-04-17T16:51:26.990Z,99.70
2023-04-17T16:53:54.260Z,99.90
2023-04-17T16:56:21.617Z,99.90
2023-04-17T16:58:48.923Z,99.90
2023-04-17T17:01:16.187Z,99.90
2023-04-17T17:03:44.919Z,99.90
2023-04-17T17:06:12.382Z,99.90
2023-04-17T17:08:41.779Z,99.90
2023-04-17T17:11:09.135Z,99.90
2023-04-17T17:13:36.417Z,99.90
2023-04-17T17:16:03.795Z,99.90
2023-04-17T17:18:31.241Z,99.90
2023-04-17T17:21:00.127Z,99.90
2023-04-17T17:23:27.401Z,99.90
2023-04-17T17:25:54.615Z,99.90
2023-04-17T17:28:22.026Z,99.90
2023-04-17T17:30:49.564Z,99.90
2023-04-17T17:33:17.083Z,99.90
2023-04-17T17:35:44.349Z,99.90
2023-04-17T17:38:12.137Z,99.90
2023-04-17T17:40:39.581Z,99.90
2023-04-17T17:43:06.839Z,99.90
2023-04-17T17:45:33.994Z,99.90
2023-04-17T17:48:01.167Z,99.90
2023-04-17T17:50:28.385Z,99.90
2023-04-17T17:52:57.338Z,99.90
2023-04-17T17:55:25.919Z,99.90
2023-04-17T17:57:53.254Z,99.90
2023-04-17T18:00:20.555Z,99.90
2023-04-17T18:02:47.975Z,99.90
2023-04-17T18:05:15.329Z,99.90
2023-04-17T18:07:43.213Z,99.90
2023-04-17T18:10:11.024Z,99.90
2023-04-17T18:12:38.204Z,99.90
2023-04-17T18:15:06.387Z,99.90
2023-04-17T18:17:33.579Z,99.90
2023-04-17T18:20:00.851Z,99.90
2023-04-17T18:22:28.211Z,99.90
2023-04-17T18:24:55.726Z,99.90
2023-04-17T18:27:23.362Z,99.90
2023-04-17T18:29:50.560Z,99.90
2023-04-17T18:32:18.540Z,99.90
2023-04-17T18:34:49.130Z,99.90
2023-04-17T18:37:18.142Z,99.90
2023-04-17T18:39:45.686Z,99.90
2023-04-17T18:42:12.849Z,99.90
2023-04-17T18:44:40.054Z,99.90
2023-04-17T18:47:07.235Z,99.90
2023-04-17T18:49:34.484Z,99.90
2023-04-17T18:52:02.048Z,99.90
2023-04-17T18:54:30.435Z,99.90
2023-04-17T18:56:58.126Z,99.90
2023-04-17T18:59:26.364Z,99.90
2023-04-17T19:01:53.878Z,99.90
2023-04-17T19:04:21.765Z,99.90
2023-04-17T19:06:49.092Z,99.90
2023-04-17T19:09:16.283Z,99.90
2023-04-17T19:11:43.543Z,99.90
2023-04-17T19:14:10.969Z,99.90
2023-04-17T19:16:38.440Z,99.90
2023-04-17T19:19:05.900Z,99.90
2023-04-17T19:21:33.154Z,99.90
2023-04-17T19:24:00.454Z,99.90
2023-04-17T19:26:27.755Z,99.90
2023-04-17T19:28:55.866Z,99.90
2023-04-17T19:31:23.168Z,99.90
2023-04-17T19:33:50.477Z,99.90
2023-04-17T19:36:17.693Z,99.90
2023-04-17T19:38:44.902Z,99.90
2023-04-17T19:41:18.196Z,99.90
2023-04-17T19:43:51.116Z,99.90
2023-04-17T19:46:20.437Z,99.90
2023-04-17T19:48:49.405Z,99.90
2023-04-17T19:51:16.945Z,99.90
2023-04-17T19:53:45.427Z,99.90
2023-04-17T19:56:12.669Z,99.90
2023-04-17T19:58:41.124Z,99.90
2023-04-17T20:01:08.559Z,99.90
2023-04-17T20:03:38.420Z,99.90
2023-04-17T20:06:05.801Z,99.90
2023-04-17T20:08:32.920Z,99.90
2023-04-17T20:11:00.802Z,99.90
2023-04-17T20:13:28.340Z,99.90
2023-04-17T20:15:55.461Z,99.90
2023-04-17T20:18:22.724Z,99.90
2023-04-17T20:20:49.942Z,99.90
2023-04-17T20:23:17.148Z,99.90
2023-04-17T20:25:44.388Z,99.90
2023-04-17T20:28:11.567Z,99.90
2023-04-17T20:30:38.794Z,99.90
2023-04-17T20:33:06.142Z,99.90
2023-04-17T20:35:33.538Z,99.90
2023-04-17T20:38:00.797Z,99.90
2023-04-17T20:40:28.134Z,99.90
2023-04-17T20:42:55.559Z,99.90
2023-04-17T20:45:22.849Z,99.90
2023-04-17T20:47:56.083Z,99.90
2023-04-17T20:50:25.429Z,99.90
2023-04-17T20:52:52.608Z,99.90
2023-04-17T20:55:20.471Z,99.90
2023-04-17T20:57:48.023Z,99.90
2023-04-17T21:00:16.192Z,99.90
2023-04-17T21:02:43.909Z,99.90
2023-04-17T21:05:11.323Z,99.90
2023-04-17T21:07:38.447Z,99.90
2023-04-17T21:10:06.422Z,99.90
2023-04-17T21:12:35.200Z,99.90
2023-04-17T21:15:02.659Z,99.90
2023-04-17T21:17:29.812Z,99.90
2023-04-17T21:19:57.036Z,99.90
2023-04-17T21:22:24.184Z,99.90
2023-04-17T21:24:51.307Z,99.90
2023-04-17T21:27:18.462Z,99.90
2023-04-17T21:29:45.726Z,99.90
2023-04-17T21:32:12.996Z,99.90
2023-04-17T21:34:40.214Z,99.90
2023-04-17T21:37:07.404Z,99.90
2023-04-17T21:39:34.574Z,99.90
2023-04-17T21:42:02.089Z,99.90
2023-04-17T21:44:29.409Z,99.90
2023-04-17T21:46:56.731Z,99.90
2023-04-17T21:49:23.917Z,99.90
2023-04-17T21:51:51.217Z,99.90
2023-04-17T21:54:18.437Z,99.90
2023-04-17T21:56:45.989Z,99.90
2023-04-17T21:59:13.206Z,99.90
2023-04-17T22:01:40.394Z,99.90
2023-04-17T22:04:07.852Z,99.90
2023-04-17T22:06:39.491Z,99.90
2023-04-17T22:09:06.616Z,99.90
2023-04-17T22:11:33.759Z,99.90
2023-04-17T22:14:00.904Z,99.90
2023-04-17T22:16:28.068Z,99.90
2023-04-17T22:18:55.301Z,99.90
2023-04-17T22:21:22.589Z,99.90
2023-04-17T22:23:49.828Z,99.90
2023-04-17T22:26:17.080Z,99.90
2023-04-17T22:28:44.284Z,99.90
2023-04-17T22:31:15.413Z,99.90
2023-04-17T22:33:43.082Z,99.90
2023-04-17T22:36:10.415Z,99.90
2023-04-17T22:38:37.561Z,99.90
2023-04-17T22:41:05.208Z,99.90
2023-04-17T22:43:32.356Z,99.90
2023-04-17T22:45:59.519Z,99.90
2023-04-17T22:48:27.846Z,99.90
2023-04-17T22:50:56.397Z,99.90
2023-04-17T22:53:23.612Z,99.90
2023-04-17T22:56:04.958Z,99.90
2023-04-17T22:58:33.674Z,99.90
2023-04-17T23:01:00.869Z,99.90
2023-04-17T23:03:28.608Z,99.90
2023-04-17T23:05:56.273Z,99.90
2023-04-17T23:08:24.046Z,99.90
2023-04-17T23:11:01.441Z,99.90
2023-04-17T23:13:29.299Z,99.90
2023-04-17T23:15:56.541Z,99.90
2023-04-17T23:18:24.494Z,99.90
2023-04-17T23:20:51.788Z,99.90
2023-04-17T23:23:18.988Z,99.90
2023-04-17T23:25:46.292Z,99.90
2023-04-17T23:28:13.921Z,99.90
2023-04-17T23:30:41.308Z,99.90
2023-04-17T23:33:09.852Z,99.90
2023-04-17T23:35:36.994Z,99.90
2023-04-17T23:38:04.282Z,99.90
2023-04-17T23:40:32.697Z,99.90
2023-04-17T23:43:00.561Z,99.90
2023-04-17T23:45:27.702Z,99.90
2023-04-17T23:47:54.968Z,99.90
2023-04-17T23:50:22.125Z,99.90
2023-04-17T23:52:49.455Z,99.90
2023-04-17T23:55:17.086Z,99.90
2023-04-17T23:57:44.254Z,99.90
